Time,TemperatureF,DewpointF,PressureIn,WindDirection,WindDirectionDegrees,WindSpeedMPH,WindSpeedGustMPH,Humidity,HourlyPrecipIn,Conditions,Clouds,dailyrainin,SoftwareType,DateUTC
2013-04-01 00:05:00,62.3,5.1,29.66,SW,225,0.0,0.0,7,0.00,,,0.00,WUHU216HW,2013-04-01 04:05:00,
2013-04-01 00:35:00,60.7,3.8,29.66,SW,225,0.0,0.0,1,0.00,,,0.00,WUHU216HW,2013-04-01 04:35:00,
2013-04-01 01:05:00,60.8,4.0,29.65,SW,225,0.0,0.0,1,0.00,,,0.00,WUHU216HW,2013-04-01 05:05:00,
2013-04-01 01:35:00,60.7,3.8,29.65,North,0,0.0,0.0,1,0.00,,,0.00,WUHU216HW,2013-04-01 05:35:00,
2013-04-01 02:05:00,59.9,3.2,29.64,North,0,0.0,0.0,1,0.00,,,0.00,WUHU216HW,2013-04-01 06:05:00,
2013-04-01 02:35:00,59.4,2.8,29.64,SW,225,0.0,0.0,1,0.00,,,0.00,WUHU216HW,2013-04-01 06:35:00,
2013-04-01 03:05:00,59.4,2.8,29.63,North,0,0.0,0.0,1,0.00,,,0.00,WUHU216HW,2013-04-01 07:05:00,
2013-04-01 03:35:00,59.6,3.0,29.62,North,0,0.0,0.0,1,0.00,,,0.00,WUHU216HW,2013-04-01 07:35:00,
2013-04-01 04:05:00,59.4,2.8,29.62,SW,225,0.0,0.0,1,0.00,,,0.00,WUHU216HW,2013-04-01 08:05:00,
2013-04-01 04:35:00,58.9,2.3,29.61,North,0,0.0,0.0,1,0.00,,,0.00,WUHU216HW,2013-04-01 08:35:00,
2013-04-01 05:05:00,57.8,1.5,29.62,North,0,0.0,0.0,1,0.00,,,0.00,WUHU216HW,2013-04-01 09:05:00,
2013-04-01 05:35:00,57.2,1.1,29.61,SW,225,0.0,0.0,1,0.00,,,0.00,WUHU216HW,2013-04-01 09:35:00,
2013-04-01 06:05:00,56.5,0.5,29.62,SW,225,0.0,0.0,1,0.00,,,0.00,WUHU216HW,2013-04-01 10:05:00,
2013-04-01 06:35:00,56.9,0.8,29.62,North,0,0.0,0.0,1,0.00,,,0.00,WUHU216HW,2013-04-01 10:35:00,
2013-04-01 07:05:00,57.1,1.0,29.63,North,0,0.0,0.0,1,0.00,,,0.00,WUHU216HW,2013-04-01 11:05:00,
2013-04-01 07:35:00,56.9,0.8,29.64,North,0,0.0,0.0,1,0.00,,,0.00,WUHU216HW,2013-04-01 11:35:00,
2013-04-01 08:05:00,57.1,1.0,29.64,North,0,0.0,0.0,1,0.00,,,0.00,WUHU216HW,2013-04-01 12:05:00,
2013-04-01 08:10:00,57.1,1.0,29.64,North,0,0.0,0.0,1,0.00,,,0.00,WUHU216HW,2013-04-01 12:10:00,
2013-04-01 08:35:00,59.0,2.5,29.66,SSE,158,0.0,0.0,1,0.00,,,0.00,WUHU216HW,2013-04-01 12:35:00,
2013-04-01 09:05:00,62.8,5.5,29.66,West,270,0.0,0.0,1,0.00,,,0.00,WUHU216HW,2013-04-01 13:05:00,
2013-04-01 09:35:00,66.6,8.4,29.66,WSW,248,0.0,0.0,1,0.00,,,0.00,WUHU216HW,2013-04-01 13:35:00,
2013-04-01 10:05:00,70.4,11.3,29.65,WNW,293,0.4,0.4,1,0.00,,,0.00,WUHU216HW,2013-04-01 14:05:00,
2013-04-01 10:35:00,74.3,14.3,29.64,East,90,0.4,0.4,1,0.00,,,0.00,WUHU216HW,2013-04-01 14:35:00,
2013-04-01 11:05:00,77.8,38.7,29.64,WSW,248,3.1,3.1,25,0.00,,,0.00,WUHU216HW,2013-04-01 15:05:00,
2013-04-01 11:35:00,80.3,50.0,29.64,WSW,248,3.6,3.6,35,0.00,,,0.00,WUHU216HW,2013-04-01 15:35:00,
2013-04-01 12:05:00,81.0,55.1,29.63,NE,45,2.2,2.2,41,0.00,,,0.00,WUHU216HW,2013-04-01 16:05:00,
2013-04-01 12:35:00,81.9,56.5,29.62,SW,225,3.4,3.4,42,0.00,,,0.00,WUHU216HW,2013-04-01 16:35:00,
2013-04-01 13:05:00,81.2,56.5,29.62,WSW,248,3.4,3.4,43,0.00,,,0.00,WUHU216HW,2013-04-01 17:05:00,
2013-04-01 13:35:00,84.4,59.5,29.60,West,270,1.8,1.8,43,0.00,,,0.00,WUHU216HW,2013-04-01 17:35:00,
2013-04-01 14:05:00,84.2,59.9,29.59,SSW,203,0.2,0.2,44,0.00,,,0.00,WUHU216HW,2013-04-01 18:05:00,
2013-04-01 14:35:00,84.8,59.8,29.58,SW,225,3.4,3.4,43,0.00,,,0.00,WUHU216HW,2013-04-01 18:35:00,
2013-04-01 15:05:00,85.3,59.7,29.57,WSW,248,3.4,3.4,42,0.00,,,0.00,WUHU216HW,2013-04-01 19:05:00,
2013-04-01 15:35:00,87.3,60.9,29.56,SW,225,6.7,6.7,41,0.00,,,0.00,WUHU216HW,2013-04-01 19:35:00,
2013-04-01 16:05:00,88.0,61.5,29.55,WNW,293,8.3,8.3,41,0.00,,,0.00,WUHU216HW,2013-04-01 20:05:00,
2013-04-01 16:35:00,86.8,60.3,29.54,West,270,4.0,4.0,41,0.00,,,0.00,WUHU216HW,2013-04-01 20:35:00,
2013-04-01 17:05:00,86.8,60.9,29.55,WSW,248,3.8,3.8,42,0.00,,,0.00,WUHU216HW,2013-04-01 21:05:00,
2013-04-01 17:35:00,86.4,60.7,29.56,South,180,2.0,2.0,42,0.00,,,0.00,WUHU216HW,2013-04-01 21:35:00,
2013-04-01 18:05:00,86.2,61.1,29.56,WSW,248,1.8,1.8,43,0.00,,,0.00,WUHU216HW,2013-04-01 22:05:00,
2013-04-01 18:35:00,82.1,58.5,29.56,North,0,1.8,1.8,45,0.00,,,0.00,WUHU216HW,2013-04-01 22:35:00,
2013-04-01 19:05:00,79.6,57.5,29.57,NNW,338,1.8,1.8,47,0.00,,,0.00,WUHU216HW,2013-04-01 23:05:00,
2013-04-01 19:35:00,77.9,55.5,29.57,West,270,2.5,2.5,46,0.00,,,0.00,WUHU216HW,2013-04-01 23:35:00,
2013-04-01 20:05:00,76.5,50.5,29.58,WNW,293,0.9,0.9,40,0.00,,,0.00,WUHU216HW,2013-04-02 00:05:00,
2013-04-01 20:35:00,75.1,45.4,29.58,West,270,0.0,0.0,35,0.00,,,0.00,WUHU216HW,2013-04-02 00:35:00,
2013-04-01 21:05:00,73.6,23.7,29.60,NW,315,1.8,1.8,16,0.00,,,0.00,WUHU216HW,2013-04-02 01:05:00,
2013-04-01 21:35:00,71.6,12.2,29.61,WSW,248,1.1,1.1,1,0.00,,,0.00,WUHU216HW,2013-04-02 01:35:00,
2013-04-01 22:05:00,70.4,11.3,29.62,West,270,0.0,0.0,1,0.00,,,0.00,WUHU216HW,2013-04-02 02:05:00,
2013-04-01 22:35:00,68.8,10.1,29.62,North,0,0.0,0.0,1,0.00,,,0.00,WUHU216HW,2013-04-02 02:35:00,
2013-04-01 23:05:00,66.8,8.6,29.63,North,0,0.0,0.0,1,0.00,,,0.00,WUHU216HW,2013-04-02 03:05:00,
2013-04-01 23:35:00,66.2,8.1,29.63,WSW,248,0.0,0.0,1,0.00,,,0.00,WUHU216HW,2013-04-02 03:35:00,